Pagrindinis puslapis
METAR-TAF:

METAR-TAF

Oro uostai :

Adana, Turkija

platuma: 36-59N, ilguma: 035-18E, Aukštis: 20 m

Dabartinis oras

Ataskaita buvo paskelbta 34 minutes, ne 05:20 UTC
Vėjas 3 kt iš Rytų/Šiaurės Rytų, svyruoja nuo Šiaurės ir Pietų/Pietryčių
Temperatūra 14°C
Drėgmė 88%
Slėgis 1009 hPa
Matomumas 10 km arba daugiau
Išsisklaidę debesys ne aukštis 3500 ft

METAR: LTAF 100520Z 06003KT 010V150 9999 SCT035 14/12 Q1009 NOSIG

Laikas: 08:54 (05:54 UTC)


TAF: trūkstamas

Orai ataskaitas ir orų prognozės (METAR, TAF).

turimą stotys yra geltonos ir raudonos taškus žemėlapyje.

Perkelti pele per norėdami pamatyti stoties vardą.

Tada spustelėkite, norėdami matyti oro stebėjimo ir prognozės.

Norėdami pakeisti žemėlapį: spustelėkite ant žalios mygtukų su juodo kryžiaus žemyn,; žalią mygtuką su brūkšneliu, jei norite nutolinti; arba žalių rodyklių gretimoms žemėlapius.


METAR-TAF: